createdAt,value
2018-08-16T19:33:01.377Z,83.00
2018-08-16T19:34:06.915Z,82.42
2018-08-16T19:36:05.386Z,83.96
2018-08-16T19:37:10.867Z,83.96
2018-08-16T19:38:16.409Z,83.25
2018-08-16T19:39:21.950Z,84.01
2018-08-16T19:40:27.498Z,84.31
2018-08-16T19:41:33.042Z,83.34
2018-08-16T19:42:38.584Z,82.76
2018-08-16T19:43:44.125Z,84.21
2018-08-16T19:44:49.670Z,83.25
2018-08-16T19:45:55.215Z,81.99
2018-08-16T19:47:00.757Z,82.96
2018-08-16T19:48:06.417Z,84.21
2018-08-16T19:49:11.837Z,82.18
2018-08-16T19:50:17.387Z,83.15
2018-08-16T19:51:22.941Z,84.31
2018-08-16T19:52:28.476Z,84.21
2018-08-16T19:53:34.024Z,84.79
2018-08-16T19:54:39.554Z,83.92
2018-08-16T19:55:45.106Z,84.41
2018-08-16T19:56:50.645Z,84.11
2018-08-16T19:57:56.212Z,84.11
2018-08-16T19:59:01.740Z,84.46
2018-08-16T20:00:07.282Z,84.07
2018-08-16T20:01:12.958Z,84.27
2018-08-16T20:02:18.368Z,84.46
2018-08-16T20:03:23.909Z,85.03
2018-08-16T20:04:29.457Z,85.23
2018-08-16T20:05:35.001Z,85.33
2018-08-16T20:06:40.542Z,85.91
2018-08-16T20:07:46.087Z,85.91
2018-08-16T20:08:51.628Z,85.71
2018-08-16T20:09:57.205Z,85.52
2018-08-16T20:11:02.716Z,86.10
2018-08-16T20:12:08.273Z,85.91
2018-08-16T20:13:13.893Z,86.48
2018-08-16T20:14:19.355Z,86.29
2018-08-16T20:15:24.893Z,86.54
2018-08-16T20:16:30.437Z,87.12
2018-08-16T20:17:35.981Z,87.60
2018-08-16T20:18:41.521Z,87.60
2018-08-16T20:19:47.117Z,87.79
2018-08-16T20:20:52.620Z,87.02
2018-08-16T20:21:58.154Z,86.82
2018-08-16T20:23:03.704Z,87.50
2018-08-16T20:24:09.335Z,87.79
2018-08-16T20:25:14.844Z,87.30
2018-08-16T20:26:20.335Z,87.79
2018-08-16T20:27:25.880Z,88.27
2018-08-16T20:28:31.418Z,88.75
2018-08-16T20:29:36.963Z,88.65
2018-08-16T20:30:42.509Z,89.58
2018-08-16T20:31:48.054Z,89.33
2018-08-16T20:32:53.597Z,89.29
2018-08-16T20:33:59.139Z,89.19
2018-08-16T20:35:04.677Z,89.39
2018-08-16T20:36:10.227Z,89.09
2018-08-16T20:37:15.766Z,90.06
2018-08-16T20:38:21.309Z,90.16
2018-08-16T20:39:26.853Z,91.02
2018-08-16T20:40:32.397Z,90.83
2018-08-16T20:41:37.946Z,90.83
2018-08-16T20:42:43.499Z,91.02
2018-08-16T20:43:49.032Z,91.12
2018-08-16T20:44:54.570Z,91.41
2018-08-16T20:46:00.118Z,91.65
2018-08-16T20:47:05.674Z,91.84
2018-08-16T20:48:11.210Z,92.13
2018-08-16T20:49:16.746Z,92.03
2018-08-16T20:50:22.290Z,91.75
2018-08-16T20:51:27.833Z,91.17
2018-08-16T20:52:33.382Z,92.32
2018-08-16T20:53:38.920Z,92.32
2018-08-16T20:54:44.464Z,92.80
2018-08-16T20:55:50.012Z,93.09
2018-08-16T20:56:55.554Z,93.43
2018-08-16T20:58:01.099Z,93.53
2018-08-16T20:59:06.649Z,93.91
2018-08-16T21:00:12.185Z,93.24
2018-08-16T21:01:17.738Z,94.20
2018-08-16T21:02:23.268Z,94.30
2018-08-16T21:03:28.810Z,94.20
2018-08-16T21:04:34.359Z,94.87
2018-08-16T21:05:39.898Z,94.68
2018-08-16T21:06:45.443Z,95.17
2018-08-16T21:07:50.998Z,95.02
2018-08-16T21:08:56.530Z,95.26
2018-08-16T21:10:02.144Z,95.65
2018-08-16T21:11:07.614Z,95.70
2018-08-16T21:12:13.158Z,95.40
2018-08-16T21:13:18.706Z,96.17
2018-08-16T21:14:24.245Z,96.08
2018-08-16T21:15:29.793Z,95.89
2018-08-16T21:16:35.335Z,96.85
2018-08-16T21:17:40.877Z,97.04
2018-08-16T21:18:46.436Z,97.33
2018-08-16T21:19:51.964Z,97.91
2018-08-16T21:20:57.542Z,98.29
2018-08-16T21:22:03.052Z,98.19
2018-08-16T21:23:08.588Z,98.68
2018-08-16T21:24:14.156Z,98.49
2018-08-16T21:25:19.680Z,98.96
2018-08-16T21:26:25.222Z,98.87
2018-08-16T21:27:30.767Z,98.29
2018-08-16T21:28:36.306Z,98.10
2018-08-16T21:29:41.846Z,98.29
2018-08-16T21:30:47.389Z,98.63
2018-08-16T21:31:52.931Z,99.01
2018-08-16T21:32:58.479Z,98.82
2018-08-16T21:34:04.018Z,98.82
2018-08-16T21:35:09.564Z,98.91
2018-08-16T21:36:15.102Z,99.11
2018-08-16T21:37:20.650Z,99.98
2018-08-16T21:38:26.188Z,99.99
2018-08-16T21:39:31.737Z,99.78
2018-08-16T21:40:37.276Z,99.99
2018-08-16T21:41:42.819Z,99.99
2018-08-16T21:42:48.366Z,99.99
2018-08-16T21:43:53.908Z,99.99
2018-08-16T21:44:59.452Z,99.99
2018-08-16T21:46:04.998Z,99.99
2018-08-16T21:47:10.537Z,99.99
2018-08-16T21:48:16.071Z,99.99
2018-08-16T21:49:21.616Z,99.99
2018-08-16T21:50:27.164Z,99.99
2018-08-16T21:51:32.700Z,99.99
2018-08-16T21:52:38.249Z,99.99
2018-08-16T21:53:43.808Z,99.99
2018-08-16T21:54:49.331Z,99.99
2018-08-16T21:55:54.877Z,99.99
2018-08-16T21:57:00.412Z,99.99
2018-08-16T21:58:05.962Z,99.99
2018-08-16T21:59:11.502Z,99.99
2018-08-16T22:00:17.042Z,99.99
2018-08-16T22:01:22.581Z,99.99
2018-08-16T22:02:28.130Z,99.99
2018-08-16T22:03:33.667Z,99.99
2018-08-16T22:04:39.216Z,99.99
2018-08-16T22:05:44.806Z,99.99
2018-08-16T22:06:50.296Z,99.99
2018-08-16T22:07:55.846Z,99.99
2018-08-16T22:09:01.382Z,99.99
2018-08-16T22:10:06.926Z,99.99
2018-08-16T22:11:12.468Z,99.99
2018-08-16T22:12:18.012Z,99.99
2018-08-16T22:13:23.553Z,99.99
2018-08-16T22:14:29.099Z,99.99
2018-08-16T22:15:34.640Z,99.99
2018-08-16T22:16:40.180Z,99.99
2018-08-16T22:17:45.725Z,99.99
2018-08-16T22:18:51.266Z,99.99
2018-08-16T22:19:57.430Z,99.99
2018-08-16T22:21:02.351Z,99.99
2018-08-16T22:22:07.894Z,99.99
2018-08-16T22:23:13.432Z,99.99
2018-08-16T22:24:18.980Z,99.99
2018-08-16T22:25:24.524Z,99.99
2018-08-16T22:26:30.068Z,99.99
2018-08-16T22:27:35.603Z,99.99
2018-08-16T22:28:41.147Z,99.99
2018-08-16T22:29:46.687Z,99.99
2018-08-16T22:30:52.231Z,99.99
2018-08-16T22:31:57.783Z,99.99
2018-08-16T22:33:03.333Z,99.99
2018-08-16T22:34:08.969Z,99.99
2018-08-16T22:35:14.408Z,99.99
2018-08-16T22:36:19.947Z,99.99
2018-08-16T22:37:25.486Z,99.99
2018-08-16T22:38:31.027Z,99.99
2018-08-16T22:39:36.572Z,99.99
2018-08-16T22:40:42.110Z,99.99
2018-08-16T22:41:47.655Z,99.99
2018-08-16T22:42:53.199Z,99.99
2018-08-16T22:43:58.743Z,99.99
2018-08-16T22:45:04.294Z,99.99
2018-08-16T22:46:09.824Z,99.99
2018-08-16T22:47:15.367Z,99.99
2018-08-16T22:48:20.923Z,99.99
2018-08-16T22:49:26.449Z,99.99
2018-08-16T22:50:31.996Z,99.99
2018-08-16T22:51:37.574Z,99.99
2018-08-16T22:52:43.077Z,99.99
2018-08-16T22:53:48.627Z,99.99
2018-08-16T22:54:54.160Z,99.99
2018-08-16T22:55:59.703Z,99.99
2018-08-16T22:57:05.250Z,99.99
2018-08-16T22:58:10.794Z,99.99
2018-08-16T22:59:16.335Z,99.99
2018-08-16T23:00:21.879Z,99.99
2018-08-16T23:01:27.419Z,99.99
2018-08-16T23:02:32.963Z,99.99
2018-08-16T23:03:38.499Z,99.99
2018-08-16T23:04:44.052Z,99.99
2018-08-16T23:05:49.608Z,99.99
2018-08-16T23:06:55.133Z,99.99
2018-08-16T23:08:00.671Z,99.99
2018-08-16T23:09:06.215Z,99.99
2018-08-16T23:10:11.752Z,99.99
2018-08-16T23:11:17.301Z,99.99
2018-08-16T23:12:22.842Z,99.99
2018-08-16T23:13:28.381Z,99.99
2018-08-16T23:14:33.922Z,99.99
2018-08-16T23:15:39.462Z,99.99
2018-08-16T23:16:45.014Z,99.99
2018-08-16T23:17:50.555Z,99.99
2018-08-16T23:18:56.091Z,99.99
2018-08-16T23:20:01.635Z,99.99
2018-08-16T23:21:07.176Z,99.99
2018-08-16T23:22:12.725Z,99.99
2018-08-16T23:23:18.261Z,99.99
2018-08-16T23:24:23.807Z,99.99
2018-08-16T23:25:29.349Z,99.99
2018-08-16T23:26:34.892Z,99.99
2018-08-16T23:27:40.436Z,99.99
2018-08-16T23:28:45.970Z,99.99
2018-08-16T23:29:51.516Z,99.99
2018-08-16T23:30:57.059Z,99.99
2018-08-16T23:32:02.603Z,99.99
2018-08-16T23:33:08.140Z,99.99
2018-08-16T23:34:13.686Z,99.99
2018-08-16T23:35:19.221Z,99.99
2018-08-16T23:36:24.775Z,99.99
2018-08-16T23:37:30.305Z,99.99
2018-08-16T23:38:35.849Z,99.99
2018-08-16T23:39:41.396Z,99.99
2018-08-16T23:40:46.936Z,99.99
2018-08-16T23:41:52.477Z,99.99
2018-08-16T23:42:58.020Z,99.99
2018-08-16T23:44:03.560Z,99.99
2018-08-16T23:45:09.104Z,99.99
2018-08-16T23:46:14.653Z,99.99
2018-08-16T23:47:20.188Z,99.99
2018-08-16T23:48:25.736Z,99.99
2018-08-16T23:49:31.270Z,99.99
2018-08-16T23:50:36.815Z,99.99
2018-08-16T23:51:42.360Z,99.99
2018-08-16T23:52:47.898Z,99.99
2018-08-16T23:53:53.437Z,99.99
2018-08-16T23:54:58.989Z,99.99
2018-08-16T23:56:04.524Z,99.99
2018-08-16T23:57:10.064Z,99.99
2018-08-16T23:58:15.622Z,99.99
2018-08-16T23:59:21.152Z,99.99
